createdAt,value
2022-10-22T00:01:28.592Z,50.56
2022-10-22T00:03:30.696Z,51.28
2022-10-22T00:05:32.575Z,51.31
2022-10-22T00:07:34.763Z,50.92
2022-10-22T00:09:36.649Z,51.30
2022-10-22T00:11:39.136Z,50.92
2022-10-22T00:13:41.695Z,51.41
2022-10-22T00:15:43.656Z,50.98
2022-10-22T00:17:45.610Z,50.99
2022-10-22T00:19:47.573Z,50.99
2022-10-22T00:21:49.709Z,50.89
2022-10-22T00:23:51.655Z,51.34
2022-10-22T00:25:54.093Z,51.36
2022-10-22T00:27:56.162Z,50.99
2022-10-22T00:29:58.048Z,51.24
2022-10-22T00:31:59.976Z,51.00
2022-10-22T00:34:02.586Z,51.08
2022-10-22T00:36:04.752Z,50.82
2022-10-22T00:38:06.524Z,50.98
2022-10-22T00:40:09.499Z,50.93
2022-10-22T00:42:20.496Z,51.70
2022-10-22T00:44:59.450Z,51.98
2022-10-22T00:47:01.517Z,51.93
2022-10-22T00:49:05.110Z,52.25
2022-10-22T00:51:09.460Z,51.61
2022-10-22T00:53:15.581Z,51.87
2022-10-22T00:55:19.102Z,51.63
2022-10-22T00:57:21.435Z,51.12
2022-10-22T00:59:23.439Z,51.27
2022-10-22T01:01:28.952Z,51.38
2022-10-22T01:03:32.328Z,51.28
2022-10-22T01:05:43.172Z,51.91
2022-10-22T01:07:49.597Z,51.75
2022-10-22T01:10:08.531Z,51.85
2022-10-22T01:12:22.430Z,51.61
2022-10-22T01:14:32.822Z,51.58
2022-10-22T01:16:54.186Z,52.28
2022-10-22T01:19:42.832Z,52.93
2022-10-22T01:21:51.301Z,52.27
2022-10-22T01:24:30.928Z,52.22
2022-10-22T01:26:49.947Z,52.77
2022-10-22T01:29:03.048Z,52.36
2022-10-22T01:31:07.579Z,51.82
2022-10-22T01:33:12.440Z,52.07
2022-10-22T01:35:19.780Z,52.46
2022-10-22T01:37:26.286Z,52.48
2022-10-22T01:39:30.960Z,52.37
2022-10-22T01:41:34.189Z,52.11
2022-10-22T01:43:36.127Z,52.68
2022-10-22T01:45:46.740Z,52.41
2022-10-22T01:48:04.162Z,52.32
2022-10-22T01:50:20.206Z,52.39
2022-10-22T01:52:51.653Z,53.07
2022-10-22T01:55:30.580Z,52.95
2022-10-22T01:57:35.806Z,52.29
2022-10-22T02:00:06.558Z,52.51
2022-10-22T02:02:19.980Z,52.43
2022-10-22T02:04:30.785Z,52.54
2022-10-22T02:06:34.231Z,52.77
2022-10-22T02:08:37.281Z,52.36
2022-10-22T02:10:42.887Z,52.74
2022-10-22T02:12:48.756Z,52.72
2022-10-22T02:18:49.821Z,52.55
2022-10-22T02:20:51.930Z,52.37
2022-10-22T02:22:54.320Z,52.20
2022-10-22T02:24:56.983Z,52.02
2022-10-22T02:27:12.229Z,52.57
2022-10-22T02:29:15.774Z,52.35
2022-10-22T02:31:23.718Z,52.59
2022-10-22T02:33:34.741Z,53.27
2022-10-22T02:35:38.907Z,53.05
2022-10-22T02:37:41.839Z,53.04
2022-10-22T02:39:45.092Z,52.91
2022-10-22T02:41:47.231Z,52.79
2022-10-22T02:43:55.045Z,53.59
2022-10-22T02:45:57.109Z,53.19
2022-10-22T02:47:59.003Z,52.92
2022-10-22T02:50:01.061Z,52.86
2022-10-22T02:52:03.114Z,53.51
2022-10-22T02:54:05.208Z,53.09
2022-10-22T02:56:07.691Z,53.17
2022-10-22T02:58:09.599Z,53.45
2022-10-22T03:00:12.416Z,53.47
2022-10-22T03:02:14.359Z,53.72
2022-10-22T03:04:16.256Z,53.47
2022-10-22T03:06:18.179Z,53.44
2022-10-22T03:08:20.403Z,53.57
2022-10-22T03:10:22.428Z,53.35
2022-10-22T03:12:24.292Z,53.14
2022-10-22T03:14:26.230Z,53.11
2022-10-22T03:16:28.153Z,53.65
2022-10-22T03:18:30.488Z,53.59
2022-10-22T03:20:32.432Z,53.61
2022-10-22T03:22:35.752Z,53.84
2022-10-22T03:25:07.639Z,54.13
2022-10-22T03:27:10.681Z,53.35
2022-10-22T03:29:14.728Z,53.43
2022-10-22T03:31:16.827Z,53.63
2022-10-22T03:33:18.773Z,53.45
2022-10-22T03:35:21.269Z,53.79
2022-10-22T03:37:25.526Z,53.46
2022-10-22T03:39:29.722Z,53.66
2022-10-22T03:41:31.896Z,53.63
2022-10-22T03:43:38.142Z,53.86
2022-10-22T03:45:40.448Z,53.74
2022-10-22T03:47:42.512Z,54.09
2022-10-22T03:49:44.540Z,53.68
2022-10-22T03:51:46.314Z,53.64
2022-10-22T03:53:48.246Z,53.68
2022-10-22T03:55:51.017Z,54.22
2022-10-22T03:57:53.133Z,54.59
2022-10-22T03:59:54.964Z,55.22
2022-10-22T04:01:56.765Z,54.59
2022-10-22T04:03:59.226Z,54.16
2022-10-22T04:06:09.521Z,55.22
2022-10-22T04:08:11.436Z,54.86
2022-10-22T04:10:13.348Z,54.82
2022-10-22T04:12:15.237Z,54.81
2022-10-22T04:14:17.187Z,55.20
2022-10-22T04:16:30.983Z,55.62
2022-10-22T04:18:32.965Z,55.05
2022-10-22T04:20:34.996Z,55.48
2022-10-22T04:22:37.198Z,55.00
2022-10-22T04:24:39.154Z,54.77
2022-10-22T04:26:41.466Z,54.81
2022-10-22T04:32:42.901Z,55.19
2022-10-22T04:34:44.868Z,55.83
2022-10-22T04:36:46.840Z,55.41
2022-10-22T04:38:53.653Z,55.72
2022-10-22T04:40:55.496Z,55.68
2022-10-22T04:42:57.325Z,55.24
2022-10-22T04:44:59.369Z,55.33
2022-10-22T04:47:01.496Z,55.18
2022-10-22T04:49:04.798Z,55.32
2022-10-22T04:51:09.099Z,55.59
2022-10-22T04:53:11.551Z,55.56
2022-10-22T04:55:13.359Z,55.53
2022-10-22T04:57:15.231Z,55.71
2022-10-22T04:59:17.089Z,55.55
2022-10-22T05:01:20.858Z,56.11
2022-10-22T05:03:25.629Z,55.90
2022-10-22T05:05:27.541Z,55.39
2022-10-22T05:07:29.359Z,56.68
2022-10-22T05:09:31.738Z,55.70
2022-10-22T05:11:37.059Z,56.00
2022-10-22T05:13:39.008Z,55.57
2022-10-22T05:15:41.150Z,55.50
2022-10-22T05:17:43.447Z,55.39
2022-10-22T05:19:45.535Z,55.86
2022-10-22T05:21:47.434Z,56.01
2022-10-22T05:23:50.876Z,56.16
2022-10-22T05:25:52.631Z,56.67
2022-10-22T05:27:57.212Z,55.92
2022-10-22T05:30:01.734Z,56.11
2022-10-22T05:32:03.697Z,56.56
2022-10-22T05:34:05.453Z,56.59
2022-10-22T05:36:08.998Z,56.58
2022-10-22T05:38:11.480Z,56.95
2022-10-22T05:40:26.625Z,56.65
2022-10-22T05:42:33.533Z,57.06
2022-10-22T05:44:35.587Z,57.15
2022-10-22T05:46:37.589Z,57.45
2022-10-22T05:48:39.798Z,57.15
2022-10-22T05:50:42.212Z,56.66
2022-10-22T05:52:44.089Z,57.16
2022-10-22T05:54:46.055Z,57.54
2022-10-22T05:56:48.418Z,57.23
2022-10-22T05:58:51.272Z,57.47
2022-10-22T06:00:53.179Z,57.25
2022-10-22T06:02:55.273Z,57.04
2022-10-22T06:04:57.326Z,56.83
2022-10-22T06:07:02.526Z,56.74
2022-10-22T06:09:27.465Z,57.12
2022-10-22T06:11:32.523Z,56.15
2022-10-22T06:13:37.029Z,55.89
2022-10-22T06:15:38.949Z,55.64
2022-10-22T06:17:40.736Z,55.47
2022-10-22T06:19:42.886Z,54.74
2022-10-22T06:21:45.482Z,54.60
2022-10-22T06:23:49.634Z,54.32
2022-10-22T06:26:00.982Z,53.85
2022-10-22T06:28:02.774Z,54.18
2022-10-22T06:30:04.998Z,53.72
2022-10-22T06:32:06.735Z,53.26
2022-10-22T06:34:12.201Z,53.24
2022-10-22T06:36:20.171Z,53.22
2022-10-22T06:38:22.299Z,53.32
2022-10-22T06:40:24.930Z,52.89
2022-10-22T06:42:28.760Z,52.79
2022-10-22T06:44:30.915Z,52.50
2022-10-22T06:46:32.920Z,52.25
2022-10-22T06:48:37.390Z,52.51
2022-10-22T06:50:39.534Z,52.49
2022-10-22T06:52:41.951Z,52.39
2022-10-22T06:54:43.908Z,52.06
2022-10-22T06:56:46.109Z,51.78
2022-10-22T06:58:49.055Z,51.38
2022-10-22T07:01:01.008Z,51.16
2022-10-22T07:03:02.911Z,51.18
2022-10-22T07:05:05.174Z,51.08
2022-10-22T07:07:07.670Z,50.16
2022-10-22T07:09:09.675Z,50.03
2022-10-22T07:11:20.792Z,49.06
2022-10-22T07:13:23.255Z,49.81
2022-10-22T07:15:25.475Z,49.45
2022-10-22T07:17:27.522Z,49.74
2022-10-22T07:19:29.652Z,48.92
2022-10-22T07:21:32.382Z,49.13
2022-10-22T07:23:34.686Z,47.95
2022-10-22T07:25:36.804Z,48.35
2022-10-22T07:27:39.275Z,48.02
2022-10-22T07:29:44.266Z,47.35
2022-10-22T07:31:46.323Z,47.23
2022-10-22T07:33:48.252Z,47.02
2022-10-22T07:35:50.282Z,46.82
2022-10-22T07:37:52.599Z,46.47
2022-10-22T07:39:54.759Z,46.51
2022-10-22T07:41:56.968Z,46.30
2022-10-22T07:43:59.014Z,46.12
2022-10-22T07:46:02.902Z,46.12
2022-10-22T07:48:05.370Z,45.86
2022-10-22T07:50:08.161Z,46.03
2022-10-22T07:52:10.298Z,45.65
2022-10-22T07:54:12.641Z,45.76
2022-10-22T07:56:14.715Z,45.74
2022-10-22T07:58:20.567Z,44.77
2022-10-22T08:00:25.280Z,45.40
2022-10-22T08:02:29.936Z,45.26
2022-10-22T08:04:32.114Z,44.75
2022-10-22T08:06:35.019Z,44.92
2022-10-22T08:08:37.172Z,45.25
2022-10-22T08:10:41.322Z,44.81
2022-10-22T08:12:43.859Z,44.25
2022-10-22T08:14:46.114Z,44.69
2022-10-22T08:16:48.303Z,44.63
2022-10-22T08:18:51.271Z,44.76
2022-10-22T08:20:54.054Z,44.95
2022-10-22T08:22:56.333Z,44.87
2022-10-22T08:24:59.243Z,44.78
2022-10-22T08:27:03.895Z,45.00
2022-10-22T08:29:06.011Z,44.84
2022-10-22T08:31:08.611Z,45.37
2022-10-22T08:33:10.930Z,45.58
2022-10-22T08:35:16.793Z,45.63
2022-10-22T08:37:19.611Z,45.46
2022-10-22T08:39:22.500Z,45.36
2022-10-22T08:41:25.399Z,45.65
2022-10-22T08:43:49.199Z,45.25
2022-10-22T08:46:16.374Z,45.70
2022-10-22T08:48:46.015Z,45.23
2022-10-22T08:50:50.287Z,45.40
2022-10-22T08:52:56.806Z,45.43
2022-10-22T08:55:04.552Z,45.38
2022-10-22T08:57:09.748Z,44.74
2022-10-22T08:59:27.893Z,44.85
2022-10-22T09:01:35.722Z,44.86
2022-10-22T09:03:49.872Z,44.65
2022-10-22T09:07:55.765Z,44.46
2022-10-22T09:10:00.690Z,44.73
2022-10-22T09:12:05.185Z,44.87
2022-10-22T09:14:09.630Z,44.35
2022-10-22T09:16:19.465Z,44.81
2022-10-22T09:18:30.312Z,44.64
2022-10-22T09:20:54.976Z,44.54
2022-10-22T09:23:12.167Z,44.22
2022-10-22T09:25:24.328Z,43.80
2022-10-22T09:27:29.150Z,43.88
2022-10-22T09:29:35.041Z,44.30
2022-10-22T09:31:37.122Z,44.23
2022-10-22T09:33:40.186Z,44.38
2022-10-22T09:36:03.547Z,43.46
2022-10-22T09:38:08.923Z,44.18
2022-10-22T09:40:15.205Z,44.18
2022-10-22T09:43:20.606Z,44.19
2022-10-22T09:45:26.289Z,44.04
2022-10-22T09:47:43.695Z,44.22
2022-10-22T09:50:31.497Z,43.71
2022-10-22T09:52:34.699Z,43.73
2022-10-22T09:54:42.617Z,43.21
2022-10-22T09:56:51.597Z,43.38
2022-10-22T09:58:56.856Z,43.08
2022-10-22T10:01:00.975Z,43.02
2022-10-22T10:03:03.607Z,43.59
2022-10-22T10:05:07.122Z,43.33
2022-10-22T10:07:21.827Z,43.08
2022-10-22T10:09:26.317Z,42.85
2022-10-22T10:11:35.259Z,42.76
2022-10-22T10:13:46.888Z,42.93
2022-10-22T10:16:17.522Z,42.51
2022-10-22T10:18:43.726Z,42.65
2022-10-22T10:23:09.732Z,42.35
2022-10-22T10:25:26.679Z,42.76
2022-10-22T10:27:40.314Z,42.44
2022-10-22T10:30:00.402Z,42.66
2022-10-22T10:32:21.126Z,42.13
2022-10-22T10:34:37.601Z,43.11
2022-10-22T10:37:03.756Z,42.84
2022-10-22T10:39:24.439Z,42.20
2022-10-22T10:41:32.591Z,42.49
2022-10-22T10:43:59.221Z,42.90
2022-10-22T10:46:38.401Z,42.95
2022-10-22T10:48:49.688Z,42.64
2022-10-22T10:51:22.312Z,41.89
2022-10-22T10:53:43.090Z,42.08
2022-10-22T10:55:57.127Z,42.57
2022-10-22T10:57:59.952Z,42.61
2022-10-22T11:00:11.061Z,42.50
2022-10-22T11:02:31.157Z,42.41
2022-10-22T11:05:06.777Z,42.13
2022-10-22T11:07:30.056Z,42.21
2022-10-22T11:09:53.693Z,42.41
2022-10-22T11:12:04.402Z,42.60
2022-10-22T11:14:20.158Z,41.74
2022-10-22T11:16:31.549Z,41.95
2022-10-22T11:18:48.553Z,42.24
2022-10-22T11:20:54.404Z,42.40
2022-10-22T11:23:21.883Z,42.41
2022-10-22T11:25:30.895Z,42.83
2022-10-22T11:27:45.037Z,42.76
2022-10-22T11:29:52.491Z,42.48
2022-10-22T11:31:57.147Z,42.91
2022-10-22T11:34:32.569Z,42.71
2022-10-22T11:36:36.979Z,42.32
2022-10-22T11:38:39.063Z,42.22
2022-10-22T11:40:52.036Z,42.06
2022-10-22T11:42:57.544Z,41.69
2022-10-22T11:45:04.359Z,41.72
2022-10-22T11:47:18.357Z,41.87
2022-10-22T11:49:28.682Z,42.16
2022-10-22T11:51:35.555Z,42.02
2022-10-22T11:53:42.171Z,42.03
2022-10-22T11:55:50.640Z,42.18
2022-10-22T11:57:57.196Z,42.49
2022-10-22T12:00:00.975Z,42.08
2022-10-22T12:02:03.137Z,42.26
2022-10-22T12:04:22.810Z,42.11
2022-10-22T12:06:26.893Z,42.23
2022-10-22T12:08:29.325Z,41.99
2022-10-22T12:10:50.972Z,41.91
2022-10-22T12:12:58.749Z,42.29
2022-10-22T12:15:01.341Z,42.65
2022-10-22T12:17:08.086Z,42.58
2022-10-22T12:19:15.690Z,42.67
2022-10-22T12:21:18.074Z,42.37
2022-10-22T12:23:25.098Z,42.47
2022-10-22T12:25:35.718Z,42.36
2022-10-22T12:27:41.031Z,42.60
2022-10-22T12:29:43.315Z,43.01
2022-10-22T12:31:47.793Z,43.08
2022-10-22T12:33:59.389Z,43.10
2022-10-22T12:36:04.384Z,42.71
2022-10-22T12:38:14.965Z,42.66
2022-10-22T12:40:18.421Z,42.91
2022-10-22T12:42:22.161Z,43.24
2022-10-22T12:44:24.122Z,43.27
2022-10-22T12:46:28.773Z,43.04
2022-10-22T12:48:36.353Z,43.01
2022-10-22T12:50:46.220Z,43.35
2022-10-22T12:52:49.109Z,43.37
2022-10-22T12:54:52.753Z,43.18
2022-10-22T12:56:56.543Z,42.72
2022-10-22T12:59:04.464Z,43.04
2022-10-22T13:01:07.326Z,42.98
2022-10-22T13:03:27.900Z,43.11
2022-10-22T13:05:39.193Z,42.85
2022-10-22T13:07:52.582Z,42.58
2022-10-22T13:09:59.980Z,42.51
2022-10-22T13:12:06.960Z,43.23
2022-10-22T13:14:21.661Z,43.00
2022-10-22T13:16:27.937Z,42.89
2022-10-22T13:18:33.686Z,42.96
2022-10-22T13:20:37.509Z,42.83
2022-10-22T13:22:42.235Z,42.51
2022-10-22T13:24:51.067Z,42.68
2022-10-22T13:26:55.219Z,42.48
2022-10-22T13:28:58.519Z,42.70
2022-10-22T13:31:08.492Z,42.79
2022-10-22T13:33:35.457Z,42.74
2022-10-22T13:35:38.654Z,42.87
2022-10-22T13:37:41.070Z,42.76
2022-10-22T13:39:43.216Z,42.89
2022-10-22T13:41:45.906Z,42.91
2022-10-22T13:43:47.991Z,42.59
2022-10-22T13:45:55.250Z,42.79
2022-10-22T13:47:57.351Z,43.03
2022-10-22T13:50:01.737Z,43.21
2022-10-22T13:52:04.199Z,42.94
2022-10-22T13:54:14.766Z,42.79
2022-10-22T13:56:18.336Z,43.32
2022-10-22T13:58:25.320Z,43.64
2022-10-22T14:00:28.027Z,43.58
2022-10-22T14:02:30.182Z,43.48
2022-10-22T14:04:41.281Z,44.28
2022-10-22T14:06:45.651Z,43.96
2022-10-22T14:08:51.797Z,45.14
2022-10-22T14:10:54.482Z,44.93
2022-10-22T14:12:56.564Z,44.83
2022-10-22T14:14:58.605Z,45.36
2022-10-22T14:17:01.033Z,45.11
2022-10-22T14:19:04.017Z,45.21
2022-10-22T14:21:07.741Z,45.52
2022-10-22T14:23:20.393Z,46.41
2022-10-22T14:25:25.268Z,46.15
2022-10-22T14:27:27.334Z,46.23
2022-10-22T14:29:29.366Z,46.33
2022-10-22T14:31:31.949Z,45.90
2022-10-22T14:33:34.058Z,45.91
2022-10-22T14:35:36.203Z,45.90
2022-10-22T14:37:38.307Z,45.87
2022-10-22T14:39:40.350Z,45.89
2022-10-22T14:41:43.192Z,46.17
2022-10-22T14:43:45.972Z,45.85
2022-10-22T14:45:48.455Z,45.80
2022-10-22T14:47:57.551Z,45.52
2022-10-22T14:50:02.493Z,45.29
2022-10-22T14:52:04.667Z,45.01
2022-10-22T14:54:06.766Z,44.93
2022-10-22T14:56:18.375Z,44.75
2022-10-22T14:58:20.300Z,44.49
2022-10-22T15:00:22.361Z,44.81
2022-10-22T15:02:27.577Z,44.58
2022-10-22T15:04:30.706Z,44.92
2022-10-22T15:06:32.947Z,45.20
2022-10-22T15:08:35.468Z,45.22
2022-10-22T15:10:37.873Z,45.05
2022-10-22T15:12:40.206Z,45.61
2022-10-22T15:14:42.505Z,45.41
2022-10-22T15:16:44.653Z,45.74
2022-10-22T15:18:46.687Z,45.90
2022-10-22T15:20:59.148Z,45.80
2022-10-22T15:23:01.174Z,45.56
2022-10-22T15:25:07.529Z,45.78
2022-10-22T15:27:09.739Z,45.43
2022-10-22T15:29:11.718Z,46.32
2022-10-22T15:31:14.901Z,45.79
2022-10-22T15:33:16.882Z,46.22
2022-10-22T15:35:18.932Z,46.21
2022-10-22T15:37:21.649Z,46.56
2022-10-22T15:39:24.835Z,46.48
2022-10-22T15:41:26.922Z,46.77
2022-10-22T15:43:28.933Z,46.40
2022-10-22T15:45:31.072Z,46.45
2022-10-22T15:47:33.705Z,46.59
2022-10-22T15:49:37.811Z,46.90
2022-10-22T15:51:40.678Z,47.26
2022-10-22T15:53:42.942Z,47.34
2022-10-22T15:56:35.431Z,47.57
2022-10-22T15:58:37.578Z,47.31
2022-10-22T16:00:39.555Z,47.39
2022-10-22T16:02:41.599Z,47.56
2022-10-22T16:04:43.599Z,47.71
2022-10-22T16:06:48.288Z,47.55
2022-10-22T16:08:50.463Z,47.64
2022-10-22T16:10:53.814Z,47.60
2022-10-22T16:12:57.936Z,48.19
2022-10-22T16:14:59.853Z,48.24
2022-10-22T16:17:02.058Z,48.06
2022-10-22T16:19:04.327Z,48.23
2022-10-22T16:33:06.988Z,47.33
2022-10-22T16:35:09.498Z,47.50
2022-10-22T16:37:11.856Z,46.63
2022-10-22T16:39:14.082Z,46.56
2022-10-22T16:41:19.057Z,46.53
2022-10-22T16:43:21.059Z,46.41
2022-10-22T16:45:23.058Z,46.20
2022-10-22T16:47:25.248Z,46.24
2022-10-22T16:49:27.392Z,45.92
2022-10-22T16:51:29.421Z,45.82
2022-10-22T16:53:31.597Z,45.59
2022-10-22T16:55:37.673Z,45.31
2022-10-22T16:57:39.776Z,45.32
2022-10-22T16:59:42.069Z,45.43
2022-10-22T17:01:44.144Z,45.39
2022-10-22T17:03:46.770Z,45.67
2022-10-22T17:05:48.900Z,45.92
2022-10-22T17:07:51.256Z,46.13
2022-10-22T17:09:53.603Z,46.09
2022-10-22T17:11:56.012Z,46.05
2022-10-22T17:13:58.052Z,45.94
2022-10-22T17:16:05.164Z,46.03
2022-10-22T17:18:07.481Z,46.68
2022-10-22T17:20:10.789Z,46.64
2022-10-22T17:22:16.150Z,46.16
2022-10-22T17:24:21.179Z,46.36
2022-10-22T17:26:24.772Z,46.91
2022-10-22T17:28:27.950Z,46.63
2022-10-22T17:30:30.608Z,46.47
2022-10-22T17:32:37.286Z,45.98
2022-10-22T17:34:41.896Z,46.25
2022-10-22T17:36:45.936Z,46.83
2022-10-22T17:38:50.772Z,46.56
2022-10-22T17:40:53.338Z,46.77
2022-10-22T17:42:55.415Z,47.07
2022-10-22T17:44:58.134Z,47.14
2022-10-22T17:47:01.288Z,47.41
2022-10-22T17:49:12.417Z,47.17
2022-10-22T17:51:14.813Z,47.49
2022-10-22T17:53:17.112Z,47.22
2022-10-22T17:55:19.292Z,47.61
2022-10-22T17:57:21.295Z,47.46
2022-10-22T17:59:23.117Z,47.07
2022-10-22T18:01:25.456Z,47.30
2022-10-22T18:03:28.064Z,47.28
2022-10-22T18:05:30.368Z,47.38
2022-10-22T18:07:32.417Z,47.54
2022-10-22T18:09:34.925Z,47.23
2022-10-22T18:11:37.883Z,47.84
2022-10-22T18:13:40.099Z,47.84
2022-10-22T18:15:42.300Z,48.09
2022-10-22T18:17:47.259Z,48.23
2022-10-22T18:19:49.675Z,48.14
2022-10-22T18:21:52.082Z,47.89
2022-10-22T18:23:54.438Z,48.21
2022-10-22T18:25:56.497Z,48.17
2022-10-22T18:27:58.528Z,48.46
2022-10-22T18:30:00.593Z,48.04
2022-10-22T18:32:08.337Z,47.68
2022-10-22T18:34:16.587Z,47.20
2022-10-22T18:36:24.016Z,47.11
2022-10-22T18:38:26.181Z,46.95
2022-10-22T18:40:30.493Z,46.76
2022-10-22T18:42:37.780Z,46.86
2022-10-22T18:44:41.915Z,46.87
2022-10-22T18:46:44.090Z,46.70
2022-10-22T18:48:47.593Z,46.72
2022-10-22T18:50:59.531Z,47.06
2022-10-22T18:53:01.418Z,47.37
2022-10-22T18:55:03.679Z,47.22
2022-10-22T18:57:08.207Z,47.86
2022-10-22T18:59:21.954Z,48.03
2022-10-22T19:01:27.902Z,48.10
2022-10-22T19:03:29.663Z,48.06
2022-10-22T19:05:31.943Z,48.14
2022-10-22T19:07:36.487Z,48.12
2022-10-22T19:09:39.995Z,48.15
2022-10-22T19:11:44.690Z,48.88
2022-10-22T19:13:46.565Z,49.04
2022-10-22T19:15:48.437Z,48.98
2022-10-22T19:17:50.331Z,49.29
2022-10-22T19:19:52.283Z,49.55
2022-10-22T19:21:56.588Z,50.17
2022-10-22T19:24:00.227Z,49.97
2022-10-22T19:26:10.299Z,52.24
2022-10-22T19:28:12.143Z,50.89
2022-10-22T19:30:14.547Z,51.19
2022-10-22T19:32:19.843Z,51.43
2022-10-22T19:34:22.011Z,51.63
2022-10-22T19:36:25.415Z,51.90
2022-10-22T19:38:29.829Z,51.74
2022-10-22T19:40:31.555Z,52.10
2022-10-22T19:42:33.679Z,52.63
2022-10-22T19:44:35.800Z,52.22
2022-10-22T19:46:38.120Z,53.36
2022-10-22T19:48:40.425Z,53.38
2022-10-22T19:50:42.767Z,53.35
2022-10-22T19:52:44.711Z,53.39
2022-10-22T19:54:47.016Z,53.58
2022-10-22T19:56:49.036Z,53.95
2022-10-22T19:58:50.880Z,54.62
2022-10-22T20:00:53.046Z,54.85
2022-10-22T20:02:58.604Z,55.95
2022-10-22T20:05:00.503Z,56.00
2022-10-22T20:07:02.403Z,55.80
2022-10-22T20:09:04.518Z,56.21
2022-10-22T20:11:10.903Z,56.14
2022-10-22T20:13:12.766Z,55.96
2022-10-22T20:15:14.792Z,55.07
2022-10-22T20:17:16.846Z,54.93
2022-10-22T20:19:19.325Z,56.11
2022-10-22T20:21:22.164Z,56.36
2022-10-22T20:23:24.558Z,56.17
2022-10-22T20:25:26.843Z,56.58
2022-10-22T20:27:29.072Z,56.17
2022-10-22T20:29:31.047Z,56.62
2022-10-22T20:31:33.296Z,56.51
2022-10-22T20:33:35.422Z,56.82
2022-10-22T20:35:37.615Z,56.10
2022-10-22T20:37:39.616Z,56.60
2022-10-22T20:40:51.275Z,57.42
2022-10-22T20:42:53.525Z,57.12
2022-10-22T20:44:55.508Z,57.54
2022-10-22T20:49:05.536Z,59.01
2022-10-22T20:51:07.629Z,58.30
2022-10-22T20:53:13.368Z,58.25
2022-10-22T20:57:18.986Z,58.50
2022-10-22T20:59:21.451Z,58.58
2022-10-22T21:01:24.372Z,58.67
2022-10-22T21:11:25.997Z,58.88
2022-10-22T21:13:28.154Z,59.68
2022-10-22T21:15:30.241Z,59.21
2022-10-22T21:17:33.139Z,59.65
2022-10-22T21:19:35.148Z,59.72
2022-10-22T21:21:37.094Z,59.47
2022-10-22T21:23:40.225Z,58.98
2022-10-22T21:25:52.489Z,59.16
2022-10-22T21:27:54.641Z,59.29
2022-10-22T21:29:56.743Z,59.08
2022-10-22T21:31:59.346Z,59.31
2022-10-22T21:34:01.504Z,58.79
2022-10-22T21:36:05.524Z,58.94
2022-10-22T21:38:45.567Z,58.83
2022-10-22T21:40:48.749Z,59.18
2022-10-22T21:42:51.279Z,59.16
2022-10-22T21:44:53.572Z,59.29
2022-10-22T21:46:55.953Z,59.35
2022-10-22T21:49:02.207Z,59.55
2022-10-22T21:51:16.132Z,60.29
2022-10-22T21:53:18.300Z,59.74
2022-10-22T21:55:20.233Z,59.77
2022-10-22T21:58:46.651Z,60.54
2022-10-22T22:00:54.582Z,59.83
2022-10-22T22:02:56.690Z,59.47
2022-10-22T22:04:59.244Z,59.61
2022-10-22T22:07:01.530Z,59.55
2022-10-22T22:09:05.506Z,58.85
2022-10-22T22:11:14.235Z,59.28
2022-10-22T22:13:17.408Z,59.43
2022-10-22T22:15:20.701Z,59.53
2022-10-22T22:17:22.927Z,59.47
2022-10-22T22:19:25.149Z,59.22
2022-10-22T22:21:27.632Z,59.50
2022-10-22T22:23:30.245Z,59.91
2022-10-22T22:25:35.397Z,60.04
2022-10-22T22:27:37.565Z,59.65
2022-10-22T22:29:39.971Z,59.69
2022-10-22T22:31:43.168Z,59.96
2022-10-22T22:33:45.797Z,60.56
2022-10-22T22:35:47.923Z,59.88
2022-10-22T22:37:52.254Z,59.75
2022-10-22T22:39:54.803Z,59.69
2022-10-22T22:41:56.964Z,59.25
2022-10-22T22:43:59.621Z,59.50
2022-10-22T22:46:08.879Z,59.74
2022-10-22T22:48:10.991Z,59.67
2022-10-22T22:50:13.007Z,59.33
2022-10-22T22:52:15.301Z,59.69
2022-10-22T22:54:17.440Z,59.62
2022-10-22T22:56:24.858Z,59.86
2022-10-22T22:58:27.899Z,59.12
2022-10-22T23:04:23.868Z,59.90
2022-10-22T23:06:28.373Z,60.09
2022-10-22T23:08:30.716Z,59.54
2022-10-22T23:10:32.950Z,59.24
2022-10-22T23:12:34.966Z,59.88
2022-10-22T23:14:36.873Z,59.40
2022-10-22T23:16:42.208Z,59.82
2022-10-22T23:18:46.083Z,59.68
2022-10-22T23:20:48.103Z,59.25
2022-10-22T23:22:50.378Z,59.39
2022-10-22T23:24:52.456Z,59.91
2022-10-22T23:26:55.935Z,60.15
2022-10-22T23:29:20.906Z,61.34
2022-10-22T23:31:23.121Z,60.12
2022-10-22T23:33:25.163Z,60.38
2022-10-22T23:35:27.047Z,60.29
2022-10-22T23:37:29.226Z,59.35
2022-10-22T23:39:31.372Z,59.75
2022-10-22T23:41:33.774Z,59.85
2022-10-22T23:43:36.587Z,59.87
2022-10-22T23:45:38.779Z,59.95
2022-10-22T23:47:41.105Z,59.39
2022-10-22T23:49:43.535Z,59.39
2022-10-22T23:51:45.656Z,59.98
2022-10-22T23:53:55.951Z,59.67
2022-10-22T23:55:58.244Z,60.60
2022-10-22T23:58:00.723Z,60.03
